KLNN/LNN METAR and TAF weather

Enter ICAO airport designator
Station Type Date Time Source
KLNN METAR 2019/12/14 17:15 UTC NOAA

KLNN 141715Z AUTO 34005KT 4SM OVC008 02/00 A2952 RMK AO1 P0001 T00240004


Station Type Date Time Source
KLNN Decoded METAR 2019/12/14 17:15 UTC NOAA

Willoughby, OH, United States (KLNN) 41-41N 081-23W
Dec 14, 2019 - 12:15 PM EST / 2019.12.14 1715 UTC
Wind: from the NNW (340 degrees) at 6 MPH (5 KT):0
Visibility: 4 mile(s):0
Sky conditions: overcast
Precipitation last hour: 0.01 inches
Temperature: 36.3 F (2.4 C)
Dew Point: 32.7 F (0.4 C)
Relative Humidity: 86%
Pressure (altimeter): 29.52 in. Hg (999 hPa)
ob: KLNN 141715Z AUTO 34005KT 4SM OVC008 02/00 A2952 RMK AO1 P0001 T00240004
cycle: 17

Station Type Date Time Source
KLNN TAF UTC NOAA

Error!

Example: see airport list